sensor_id;sensor_type;location;lat;lon;timestamp;P1;durP1;ratioP1;P2;durP2;ratioP2
54743;SDS011;40639;53.170;6.728;2023-04-01T00:00:29;13.00;;;6.80;;
54743;SDS011;40639;53.170;6.728;2023-04-01T00:02:55;9.85;;;5.72;;
54743;SDS011;40639;53.170;6.728;2023-04-01T00:05:21;13.85;;;6.30;;
54743;SDS011;40639;53.170;6.728;2023-04-01T00:07:49;9.88;;;4.63;;
54743;SDS011;40639;53.170;6.728;2023-04-01T00:10:16;11.02;;;5.30;;
54743;SDS011;40639;53.170;6.728;2023-04-01T00:12:42;9.73;;;5.00;;
54743;SDS011;40639;53.170;6.728;2023-04-01T00:15:09;11.75;;;5.25;;
54743;SDS011;40639;53.170;6.728;2023-04-01T00:17:36;8.65;;;4.90;;
54743;SDS011;40639;53.170;6.728;2023-04-01T00:20:02;8.70;;;4.82;;
54743;SDS011;40639;53.170;6.728;2023-04-01T00:22:29;6.95;;;4.55;;
54743;SDS011;40639;53.170;6.728;2023-04-01T00:24:55;7.53;;;4.60;;
54743;SDS011;40639;53.170;6.728;2023-04-01T00:27:21;7.13;;;4.70;;
54743;SDS011;40639;53.170;6.728;2023-04-01T00:29:47;9.05;;;5.65;;
54743;SDS011;40639;53.170;6.728;2023-04-01T00:32:14;8.80;;;4.80;;
54743;SDS011;40639;53.170;6.728;2023-04-01T00:34:40;8.88;;;5.00;;
54743;SDS011;40639;53.170;6.728;2023-04-01T00:37:07;8.15;;;4.90;;
54743;SDS011;40639;53.170;6.728;2023-04-01T00:39:34;9.68;;;5.63;;
54743;SDS011;40639;53.170;6.728;2023-04-01T00:42:02;10.98;;;6.00;;
54743;SDS011;40639;53.170;6.728;2023-04-01T00:44:29;9.85;;;5.65;;
54743;SDS011;40639;53.170;6.728;2023-04-01T00:46:57;9.27;;;4.70;;
54743;SDS011;40639;53.170;6.728;2023-04-01T00:49:23;9.38;;;5.35;;
54743;SDS011;40639;53.170;6.728;2023-04-01T00:51:51;12.02;;;6.57;;
54743;SDS011;40639;53.170;6.728;2023-04-01T00:54:19;10.98;;;6.03;;
54743;SDS011;40639;53.170;6.728;2023-04-01T00:56:48;10.48;;;6.25;;
54743;SDS011;40639;53.170;6.728;2023-04-01T00:59:16;13.32;;;6.55;;
54743;SDS011;40639;53.170;6.728;2023-04-01T01:01:44;13.43;;;7.72;;
54743;SDS011;40639;53.170;6.728;2023-04-01T01:04:24;12.00;;;6.82;;
54743;SDS011;40639;53.170;6.728;2023-04-01T01:07:37;13.02;;;6.70;;
54743;SDS011;40639;53.170;6.728;2023-04-01T01:12:19;11.15;;;5.93;;
54743;SDS011;40639;53.170;6.728;2023-04-01T01:17:29;9.48;;;5.35;;
54743;SDS011;40639;53.170;6.728;2023-04-01T01:23:57;10.07;;;5.78;;
54743;SDS011;40639;53.170;6.728;2023-04-01T01:31:13;8.30;;;5.50;;
54743;SDS011;40639;53.170;6.728;2023-04-01T01:36:08;9.98;;;5.50;;
54743;SDS011;40639;53.170;6.728;2023-04-01T01:38:36;9.52;;;5.68;;
54743;SDS011;40639;53.170;6.728;2023-04-01T01:41:04;11.27;;;5.57;;
54743;SDS011;40639;53.170;6.728;2023-04-01T01:43:33;10.15;;;5.50;;
54743;SDS011;40639;53.170;6.728;2023-04-01T01:46:03;10.65;;;5.38;;
54743;SDS011;40639;53.170;6.728;2023-04-01T01:48:31;9.65;;;5.70;;
54743;SDS011;40639;53.170;6.728;2023-04-01T01:50:58;11.80;;;5.60;;
54743;SDS011;40639;53.170;6.728;2023-04-01T01:53:24;10.52;;;5.82;;
54743;SDS011;40639;53.170;6.728;2023-04-01T01:55:50;10.75;;;5.85;;
54743;SDS011;40639;53.170;6.728;2023-04-01T01:58:40;12.52;;;5.57;;
54743;SDS011;40639;53.170;6.728;2023-04-01T02:01:10;9.75;;;5.20;;
54743;SDS011;40639;53.170;6.728;2023-04-01T02:03:38;10.30;;;6.47;;
54743;SDS011;40639;53.170;6.728;2023-04-01T02:06:06;12.00;;;6.05;;
54743;SDS011;40639;53.170;6.728;2023-04-01T02:08:43;9.60;;;5.88;;
54743;SDS011;40639;53.170;6.728;2023-04-01T02:11:11;11.00;;;6.53;;
54743;SDS011;40639;53.170;6.728;2023-04-01T02:16:27;12.05;;;6.22;;
54743;SDS011;40639;53.170;6.728;2023-04-01T02:18:57;13.30;;;6.40;;
54743;SDS011;40639;53.170;6.728;2023-04-01T02:21:24;13.65;;;6.72;;
54743;SDS011;40639;53.170;6.728;2023-04-01T02:23:51;12.30;;;6.30;;
54743;SDS011;40639;53.170;6.728;2023-04-01T02:26:19;13.32;;;6.78;;
54743;SDS011;40639;53.170;6.728;2023-04-01T02:28:46;13.63;;;6.88;;
54743;SDS011;40639;53.170;6.728;2023-04-01T02:31:13;10.63;;;6.45;;
54743;SDS011;40639;53.170;6.728;2023-04-01T02:33:40;12.32;;;7.00;;
54743;SDS011;40639;53.170;6.728;2023-04-01T02:36:10;11.65;;;6.57;;
54743;SDS011;40639;53.170;6.728;2023-04-01T02:38:36;14.98;;;7.03;;
54743;SDS011;40639;53.170;6.728;2023-04-01T02:41:03;12.25;;;6.50;;
54743;SDS011;40639;53.170;6.728;2023-04-01T02:43:31;11.45;;;6.75;;
54743;SDS011;40639;53.170;6.728;2023-04-01T02:45:57;10.60;;;6.20;;
54743;SDS011;40639;53.170;6.728;2023-04-01T02:48:23;10.70;;;5.93;;
54743;SDS011;40639;53.170;6.728;2023-04-01T02:50:49;11.48;;;6.45;;
54743;SDS011;40639;53.170;6.728;2023-04-01T02:53:16;14.20;;;6.82;;
54743;SDS011;40639;53.170;6.728;2023-04-01T02:55:42;9.00;;;5.95;;
54743;SDS011;40639;53.170;6.728;2023-04-01T02:58:09;10.65;;;6.22;;
54743;SDS011;40639;53.170;6.728;2023-04-01T03:00:36;9.38;;;5.78;;
54743;SDS011;40639;53.170;6.728;2023-04-01T03:03:03;9.07;;;5.75;;
54743;SDS011;40639;53.170;6.728;2023-04-01T03:05:29;10.13;;;6.28;;
54743;SDS011;40639;53.170;6.728;2023-04-01T03:07:55;10.70;;;6.75;;
54743;SDS011;40639;53.170;6.728;2023-04-01T03:10:21;11.93;;;6.70;;
54743;SDS011;40639;53.170;6.728;2023-04-01T03:12:47;11.25;;;7.13;;
54743;SDS011;40639;53.170;6.728;2023-04-01T03:15:14;12.65;;;7.13;;
54743;SDS011;40639;53.170;6.728;2023-04-01T03:17:40;11.45;;;6.65;;
54743;SDS011;40639;53.170;6.728;2023-04-01T03:20:07;12.90;;;7.28;;
54743;SDS011;40639;53.170;6.728;2023-04-01T03:22:34;13.05;;;7.40;;
54743;SDS011;40639;53.170;6.728;2023-04-01T03:25:01;12.48;;;7.57;;
54743;SDS011;40639;53.170;6.728;2023-04-01T03:27:28;12.57;;;8.10;;
54743;SDS011;40639;53.170;6.728;2023-04-01T03:29:54;12.05;;;7.07;;
54743;SDS011;40639;53.170;6.728;2023-04-01T03:32:20;13.40;;;7.20;;
54743;SDS011;40639;53.170;6.728;2023-04-01T03:34:46;11.02;;;7.35;;
54743;SDS011;40639;53.170;6.728;2023-04-01T03:37:13;14.25;;;8.27;;
54743;SDS011;40639;53.170;6.728;2023-04-01T03:39:39;13.82;;;7.72;;
54743;SDS011;40639;53.170;6.728;2023-04-01T03:42:05;12.13;;;7.60;;
54743;SDS011;40639;53.170;6.728;2023-04-01T03:44:32;13.98;;;7.80;;
54743;SDS011;40639;53.170;6.728;2023-04-01T03:46:59;15.57;;;8.27;;
54743;SDS011;40639;53.170;6.728;2023-04-01T03:49:25;15.00;;;7.97;;
54743;SDS011;40639;53.170;6.728;2023-04-01T03:51:51;14.23;;;8.13;;
54743;SDS011;40639;53.170;6.728;2023-04-01T03:54:18;12.80;;;7.97;;
54743;SDS011;40639;53.170;6.728;2023-04-01T03:56:45;13.82;;;8.10;;
54743;SDS011;40639;53.170;6.728;2023-04-01T03:59:11;13.90;;;8.32;;
54743;SDS011;40639;53.170;6.728;2023-04-01T04:01:38;15.85;;;8.50;;
54743;SDS011;40639;53.170;6.728;2023-04-01T04:04:04;13.40;;;8.10;;
54743;SDS011;40639;53.170;6.728;2023-04-01T04:06:31;15.00;;;8.48;;
54743;SDS011;40639;53.170;6.728;2023-04-01T04:08:58;16.80;;;9.02;;
54743;SDS011;40639;53.170;6.728;2023-04-01T04:11:24;15.50;;;8.68;;
54743;SDS011;40639;53.170;6.728;2023-04-01T04:13:50;16.33;;;9.00;;
54743;SDS011;40639;53.170;6.728;2023-04-01T04:16:17;15.63;;;9.07;;
54743;SDS011;40639;53.170;6.728;2023-04-01T04:18:43;15.93;;;9.23;;
54743;SDS011;40639;53.170;6.728;2023-04-01T04:21:13;16.58;;;10.05;;
54743;SDS011;40639;53.170;6.728;2023-04-01T04:23:40;14.73;;;9.60;;
54743;SDS011;40639;53.170;6.728;2023-04-01T04:26:06;15.32;;;8.98;;
54743;SDS011;40639;53.170;6.728;2023-04-01T04:28:33;15.65;;;9.75;;
54743;SDS011;40639;53.170;6.728;2023-04-01T04:31:00;15.65;;;9.02;;
54743;SDS011;40639;53.170;6.728;2023-04-01T04:33:26;15.32;;;8.38;;
54743;SDS011;40639;53.170;6.728;2023-04-01T04:35:55;14.30;;;8.43;;
54743;SDS011;40639;53.170;6.728;2023-04-01T04:38:21;13.20;;;8.52;;
54743;SDS011;40639;53.170;6.728;2023-04-01T04:40:47;13.95;;;8.02;;
54743;SDS011;40639;53.170;6.728;2023-04-01T04:43:14;14.82;;;8.52;;
54743;SDS011;40639;53.170;6.728;2023-04-01T04:45:41;13.77;;;8.32;;
54743;SDS011;40639;53.170;6.728;2023-04-01T04:48:08;14.15;;;8.93;;
54743;SDS011;40639;53.170;6.728;2023-04-01T04:50:35;14.40;;;8.20;;
54743;SDS011;40639;53.170;6.728;2023-04-01T04:53:01;15.15;;;8.82;;
54743;SDS011;40639;53.170;6.728;2023-04-01T04:55:27;13.95;;;7.90;;
54743;SDS011;40639;53.170;6.728;2023-04-01T04:57:53;12.68;;;7.88;;
54743;SDS011;40639;53.170;6.728;2023-04-01T05:00:20;12.15;;;7.97;;
54743;SDS011;40639;53.170;6.728;2023-04-01T05:02:46;14.15;;;7.65;;
54743;SDS011;40639;53.170;6.728;2023-04-01T05:05:12;14.63;;;8.10;;
54743;SDS011;40639;53.170;6.728;2023-04-01T05:07:38;13.18;;;7.93;;
54743;SDS011;40639;53.170;6.728;2023-04-01T05:10:05;15.48;;;9.18;;
54743;SDS011;40639;53.170;6.728;2023-04-01T05:12:31;12.07;;;7.32;;
54743;SDS011;40639;53.170;6.728;2023-04-01T05:15:02;13.40;;;7.53;;
54743;SDS011;40639;53.170;6.728;2023-04-01T05:17:28;12.93;;;7.75;;
54743;SDS011;40639;53.170;6.728;2023-04-01T05:19:54;12.65;;;7.70;;
54743;SDS011;40639;53.170;6.728;2023-04-01T05:22:21;13.52;;;8.32;;
54743;SDS011;40639;53.170;6.728;2023-04-01T05:24:47;13.07;;;8.25;;
54743;SDS011;40639;53.170;6.728;2023-04-01T05:27:14;17.75;;;8.65;;
54743;SDS011;40639;53.170;6.728;2023-04-01T05:29:40;13.88;;;7.68;;
54743;SDS011;40639;53.170;6.728;2023-04-01T05:32:06;14.77;;;8.73;;
54743;SDS011;40639;53.170;6.728;2023-04-01T05:34:32;14.80;;;8.63;;
54743;SDS011;40639;53.170;6.728;2023-04-01T05:36:58;14.10;;;7.82;;
54743;SDS011;40639;53.170;6.728;2023-04-01T05:39:25;15.85;;;8.25;;
54743;SDS011;40639;53.170;6.728;2023-04-01T05:41:51;12.45;;;7.35;;
54743;SDS011;40639;53.170;6.728;2023-04-01T05:44:17;14.38;;;7.80;;
54743;SDS011;40639;53.170;6.728;2023-04-01T05:46:43;12.43;;;7.93;;
54743;SDS011;40639;53.170;6.728;2023-04-01T05:49:09;12.77;;;7.75;;
54743;SDS011;40639;53.170;6.728;2023-04-01T05:51:36;15.05;;;7.70;;
54743;SDS011;40639;53.170;6.728;2023-04-01T05:54:03;16.10;;;7.50;;
54743;SDS011;40639;53.170;6.728;2023-04-01T05:56:29;14.45;;;8.48;;
54743;SDS011;40639;53.170;6.728;2023-04-01T05:58:56;14.38;;;8.60;;
54743;SDS011;40639;53.170;6.728;2023-04-01T06:01:22;14.77;;;7.55;;
54743;SDS011;40639;53.170;6.728;2023-04-01T06:03:48;14.05;;;8.25;;
54743;SDS011;40639;53.170;6.728;2023-04-01T06:06:15;15.68;;;8.32;;
54743;SDS011;40639;53.170;6.728;2023-04-01T06:08:42;14.05;;;8.27;;
54743;SDS011;40639;53.170;6.728;2023-04-01T06:26:27;18.70;;;10.63;;
54743;SDS011;40639;53.170;6.728;2023-04-01T06:46:28;24.48;;;12.27;;
54743;SDS011;40639;53.170;6.728;2023-04-01T06:49:02;20.58;;;11.68;;
54743;SDS011;40639;53.170;6.728;2023-04-01T06:56:25;21.30;;;12.13;;
54743;SDS011;40639;53.170;6.728;2023-04-01T07:01:20;22.23;;;11.48;;
54743;SDS011;40639;53.170;6.728;2023-04-01T07:03:58;20.67;;;11.18;;
54743;SDS011;40639;53.170;6.728;2023-04-01T07:06:45;21.23;;;12.48;;
54743;SDS011;40639;53.170;6.728;2023-04-01T07:11:39;19.48;;;11.85;;
54743;SDS011;40639;53.170;6.728;2023-04-01T07:24:10;19.67;;;11.35;;
54743;SDS011;40639;53.170;6.728;2023-04-01T07:26:38;22.77;;;12.32;;
54743;SDS011;40639;53.170;6.728;2023-04-01T07:29:05;17.58;;;11.23;;
54743;SDS011;40639;53.170;6.728;2023-04-01T07:32:11;19.40;;;11.82;;
54743;SDS011;40639;53.170;6.728;2023-04-01T07:34:30;19.70;;;11.13;;
54743;SDS011;40639;53.170;6.728;2023-04-01T07:44:38;19.55;;;11.18;;
54743;SDS011;40639;53.170;6.728;2023-04-01T07:49:56;18.38;;;10.15;;
54743;SDS011;40639;53.170;6.728;2023-04-01T07:52:35;17.88;;;10.07;;
54743;SDS011;40639;53.170;6.728;2023-04-01T07:55:16;18.65;;;10.63;;
54743;SDS011;40639;53.170;6.728;2023-04-01T08:00:19;17.42;;;10.27;;
54743;SDS011;40639;53.170;6.728;2023-04-01T08:05:28;16.13;;;10.25;;
54743;SDS011;40639;53.170;6.728;2023-04-01T08:08:15;17.50;;;10.35;;
54743;SDS011;40639;53.170;6.728;2023-04-01T08:13:34;13.68;;;8.80;;
54743;SDS011;40639;53.170;6.728;2023-04-01T08:23:21;13.35;;;8.00;;
54743;SDS011;40639;53.170;6.728;2023-04-01T08:25:51;12.18;;;7.70;;
54743;SDS011;40639;53.170;6.728;2023-04-01T08:28:36;13.73;;;8.50;;
54743;SDS011;40639;53.170;6.728;2023-04-01T08:33:59;16.55;;;9.38;;
54743;SDS011;40639;53.170;6.728;2023-04-01T08:44:37;14.70;;;8.88;;
54743;SDS011;40639;53.170;6.728;2023-04-01T08:49:29;13.93;;;7.60;;
54743;SDS011;40639;53.170;6.728;2023-04-01T08:57:12;10.20;;;6.65;;
54743;SDS011;40639;53.170;6.728;2023-04-01T09:02:50;11.85;;;6.82;;
54743;SDS011;40639;53.170;6.728;2023-04-01T09:08:03;9.60;;;6.10;;
54743;SDS011;40639;53.170;6.728;2023-04-01T09:18:21;9.63;;;5.93;;
54743;SDS011;40639;53.170;6.728;2023-04-01T09:23:38;7.22;;;4.68;;
54743;SDS011;40639;53.170;6.728;2023-04-01T09:26:14;7.40;;;4.60;;
54743;SDS011;40639;53.170;6.728;2023-04-01T09:31:13;7.13;;;3.88;;
54743;SDS011;40639;53.170;6.728;2023-04-01T09:33:47;4.47;;;2.70;;
54743;SDS011;40639;53.170;6.728;2023-04-01T09:37:00;4.60;;;2.53;;
54743;SDS011;40639;53.170;6.728;2023-04-01T09:39:13;4.55;;;2.90;;
54743;SDS011;40639;53.170;6.728;2023-04-01T09:44:36;4.47;;;2.50;;
54743;SDS011;40639;53.170;6.728;2023-04-01T10:07:49;3.08;;;1.73;;
54743;SDS011;40639;53.170;6.728;2023-04-01T10:15:42;2.35;;;1.45;;
54743;SDS011;40639;53.170;6.728;2023-04-01T10:26:29;3.60;;;2.00;;
54743;SDS011;40639;53.170;6.728;2023-04-01T10:44:49;2.58;;;1.13;;
54743;SDS011;40639;53.170;6.728;2023-04-01T10:47:48;1.45;;;1.10;;
54743;SDS011;40639;53.170;6.728;2023-04-01T11:04:13;2.30;;;1.45;;
54743;SDS011;40639;53.170;6.728;2023-04-01T11:06:49;2.00;;;1.45;;
54743;SDS011;40639;53.170;6.728;2023-04-01T11:14:49;1.35;;;1.25;;
54743;SDS011;40639;53.170;6.728;2023-04-01T11:17:25;1.70;;;1.30;;
54743;SDS011;40639;53.170;6.728;2023-04-01T11:30:41;2.45;;;1.70;;
54743;SDS011;40639;53.170;6.728;2023-04-01T11:41:14;2.15;;;1.40;;
54743;SDS011;40639;53.170;6.728;2023-04-01T11:46:18;1.63;;;1.33;;
54743;SDS011;40639;53.170;6.728;2023-04-01T11:48:54;1.73;;;1.38;;
54743;SDS011;40639;53.170;6.728;2023-04-01T12:04:38;2.03;;;1.60;;
54743;SDS011;40639;53.170;6.728;2023-04-01T12:07:20;2.50;;;1.33;;
54743;SDS011;40639;53.170;6.728;2023-04-01T12:12:26;2.75;;;1.52;;
54743;SDS011;40639;53.170;6.728;2023-04-01T12:20:26;1.77;;;1.30;;
54743;SDS011;40639;53.170;6.728;2023-04-01T12:23:11;3.25;;;1.95;;
54743;SDS011;40639;53.170;6.728;2023-04-01T12:34:12;2.47;;;1.63;;
54743;SDS011;40639;53.170;6.728;2023-04-01T12:44:37;2.10;;;1.38;;
54743;SDS011;40639;53.170;6.728;2023-04-01T12:47:16;1.92;;;1.73;;
54743;SDS011;40639;53.170;6.728;2023-04-01T12:49:55;3.33;;;1.98;;
54743;SDS011;40639;53.170;6.728;2023-04-01T12:55:00;2.83;;;1.88;;
54743;SDS011;40639;53.170;6.728;2023-04-01T13:13:00;2.30;;;1.67;;
54743;SDS011;40639;53.170;6.728;2023-04-01T13:15:52;2.15;;;1.60;;
54743;SDS011;40639;53.170;6.728;2023-04-01T13:20:59;1.90;;;1.42;;
54743;SDS011;40639;53.170;6.728;2023-04-01T13:23:33;2.22;;;1.70;;
54743;SDS011;40639;53.170;6.728;2023-04-01T13:29:04;2.05;;;1.50;;
54743;SDS011;40639;53.170;6.728;2023-04-01T13:34:28;2.47;;;1.38;;
54743;SDS011;40639;53.170;6.728;2023-04-01T13:39:40;4.78;;;2.15;;
54743;SDS011;40639;53.170;6.728;2023-04-01T13:42:18;2.28;;;1.58;;
54743;SDS011;40639;53.170;6.728;2023-04-01T13:44:51;2.08;;;1.38;;
54743;SDS011;40639;53.170;6.728;2023-04-01T13:49:58;2.70;;;1.40;;
54743;SDS011;40639;53.170;6.728;2023-04-01T14:25:28;1.30;;;1.10;;
54743;SDS011;40639;53.170;6.728;2023-04-01T14:29:58;3.70;;;1.40;;
54743;SDS011;40639;53.170;6.728;2023-04-01T14:35:50;1.88;;;1.05;;
54743;SDS011;40639;53.170;6.728;2023-04-01T14:41:09;2.22;;;1.60;;
54743;SDS011;40639;53.170;6.728;2023-04-01T14:43:47;1.70;;;1.45;;
54743;SDS011;40639;53.170;6.728;2023-04-01T14:46:23;2.33;;;1.13;;
54743;SDS011;40639;53.170;6.728;2023-04-01T14:48:57;1.55;;;1.35;;
54743;SDS011;40639;53.170;6.728;2023-04-01T14:53:59;1.90;;;1.30;;
54743;SDS011;40639;53.170;6.728;2023-04-01T14:56:39;1.60;;;1.20;;
54743;SDS011;40639;53.170;6.728;2023-04-01T14:59:09;1.77;;;1.35;;
54743;SDS011;40639;53.170;6.728;2023-04-01T15:04:28;1.95;;;1.30;;
54743;SDS011;40639;53.170;6.728;2023-04-01T15:07:02;1.60;;;1.50;;
54743;SDS011;40639;53.170;6.728;2023-04-01T15:09:39;2.35;;;1.10;;
54743;SDS011;40639;53.170;6.728;2023-04-01T15:32:57;2.42;;;1.70;;
54743;SDS011;40639;53.170;6.728;2023-04-01T15:38:25;2.83;;;2.00;;
54743;SDS011;40639;53.170;6.728;2023-04-01T15:41:03;3.83;;;2.08;;
54743;SDS011;40639;53.170;6.728;2023-04-01T15:48:46;3.70;;;2.20;;
54743;SDS011;40639;53.170;6.728;2023-04-01T15:59:18;4.65;;;2.47;;
54743;SDS011;40639;53.170;6.728;2023-04-01T16:02:00;4.72;;;2.70;;
54743;SDS011;40639;53.170;6.728;2023-04-01T16:20:44;3.97;;;2.58;;
54743;SDS011;40639;53.170;6.728;2023-04-01T16:23:20;5.22;;;2.70;;
54743;SDS011;40639;53.170;6.728;2023-04-01T16:25:57;6.93;;;3.08;;
54743;SDS011;40639;53.170;6.728;2023-04-01T16:28:29;6.18;;;3.10;;
54743;SDS011;40639;53.170;6.728;2023-04-01T16:31:00;5.93;;;3.00;;
54743;SDS011;40639;53.170;6.728;2023-04-01T16:36:26;4.93;;;3.28;;
54743;SDS011;40639;53.170;6.728;2023-04-01T16:39:15;6.07;;;3.28;;
54743;SDS011;40639;53.170;6.728;2023-04-01T16:44:23;8.45;;;3.67;;
54743;SDS011;40639;53.170;6.728;2023-04-01T16:57:02;7.63;;;3.50;;
54743;SDS011;40639;53.170;6.728;2023-04-01T17:04:42;6.63;;;3.30;;
54743;SDS011;40639;53.170;6.728;2023-04-01T17:07:28;5.63;;;2.90;;
54743;SDS011;40639;53.170;6.728;2023-04-01T17:15:21;6.88;;;2.95;;
54743;SDS011;40639;53.170;6.728;2023-04-01T17:23:21;4.47;;;3.10;;
54743;SDS011;40639;53.170;6.728;2023-04-01T17:31:01;5.13;;;2.78;;
54743;SDS011;40639;53.170;6.728;2023-04-01T17:41:36;7.72;;;3.60;;
54743;SDS011;40639;53.170;6.728;2023-04-01T17:46:56;5.97;;;3.05;;
54743;SDS011;40639;53.170;6.728;2023-04-01T17:59:26;5.75;;;2.85;;
54743;SDS011;40639;53.170;6.728;2023-04-01T18:17:21;6.03;;;3.42;;
54743;SDS011;40639;53.170;6.728;2023-04-01T18:22:36;6.32;;;3.95;;
54743;SDS011;40639;53.170;6.728;2023-04-01T18:25:12;7.00;;;3.38;;
54743;SDS011;40639;53.170;6.728;2023-04-01T18:27:42;6.30;;;3.67;;
54743;SDS011;40639;53.170;6.728;2023-04-01T18:30:21;9.07;;;3.85;;
54743;SDS011;40639;53.170;6.728;2023-04-01T18:32:52;7.53;;;3.92;;
54743;SDS011;40639;53.170;6.728;2023-04-01T18:35:24;10.13;;;4.05;;
54743;SDS011;40639;53.170;6.728;2023-04-01T18:40:34;10.02;;;4.18;;
54743;SDS011;40639;53.170;6.728;2023-04-01T18:43:04;8.35;;;4.32;;
54743;SDS011;40639;53.170;6.728;2023-04-01T18:45:57;9.50;;;4.07;;
54743;SDS011;40639;53.170;6.728;2023-04-01T18:51:02;7.53;;;3.85;;
54743;SDS011;40639;53.170;6.728;2023-04-01T18:53:43;6.88;;;4.18;;
54743;SDS011;40639;53.170;6.728;2023-04-01T18:56:22;6.82;;;3.60;;
54743;SDS011;40639;53.170;6.728;2023-04-01T19:03:55;10.18;;;4.63;;
54743;SDS011;40639;53.170;6.728;2023-04-01T19:06:28;10.70;;;4.20;;
54743;SDS011;40639;53.170;6.728;2023-04-01T19:08:56;9.68;;;4.20;;
54743;SDS011;40639;53.170;6.728;2023-04-01T19:11:29;8.88;;;4.47;;
54743;SDS011;40639;53.170;6.728;2023-04-01T19:21:47;10.23;;;4.68;;
54743;SDS011;40639;53.170;6.728;2023-04-01T19:24:22;8.70;;;4.25;;
54743;SDS011;40639;53.170;6.728;2023-04-01T19:32:16;8.48;;;4.60;;
54743;SDS011;40639;53.170;6.728;2023-04-01T19:34:52;7.53;;;4.38;;
54743;SDS011;40639;53.170;6.728;2023-04-01T19:40:20;9.43;;;5.47;;
54743;SDS011;40639;53.170;6.728;2023-04-01T19:42:58;11.18;;;4.80;;
54743;SDS011;40639;53.170;6.728;2023-04-01T19:51:06;8.63;;;4.53;;
54743;SDS011;40639;53.170;6.728;2023-04-01T19:56:20;9.20;;;4.22;;
54743;SDS011;40639;53.170;6.728;2023-04-01T20:01:44;8.25;;;3.88;;
54743;SDS011;40639;53.170;6.728;2023-04-01T20:04:23;6.63;;;3.40;;
54743;SDS011;40639;53.170;6.728;2023-04-01T20:12:42;12.30;;;4.25;;
54743;SDS011;40639;53.170;6.728;2023-04-01T20:15:21;9.48;;;3.80;;
54743;SDS011;40639;53.170;6.728;2023-04-01T20:17:50;8.43;;;3.92;;
54743;SDS011;40639;53.170;6.728;2023-04-01T20:20:19;10.70;;;3.63;;
54743;SDS011;40639;53.170;6.728;2023-04-01T20:27:39;10.02;;;3.67;;
54743;SDS011;40639;53.170;6.728;2023-04-01T20:32:46;8.57;;;3.67;;
54743;SDS011;40639;53.170;6.728;2023-04-01T20:43:32;6.78;;;3.55;;
54743;SDS011;40639;53.170;6.728;2023-04-01T20:51:21;6.68;;;3.80;;
54743;SDS011;40639;53.170;6.728;2023-04-01T20:53:50;8.18;;;3.38;;
54743;SDS011;40639;53.170;6.728;2023-04-01T20:56:20;6.63;;;3.00;;
54743;SDS011;40639;53.170;6.728;2023-04-01T20:58:51;5.68;;;2.78;;
54743;SDS011;40639;53.170;6.728;2023-04-01T21:03:58;5.93;;;3.05;;
54743;SDS011;40639;53.170;6.728;2023-04-01T21:09:17;5.88;;;2.55;;
54743;SDS011;40639;53.170;6.728;2023-04-01T21:17:00;6.40;;;2.60;;
54743;SDS011;40639;53.170;6.728;2023-04-01T21:27:21;6.25;;;2.97;;
54743;SDS011;40639;53.170;6.728;2023-04-01T21:30:00;7.00;;;2.95;;
54743;SDS011;40639;53.170;6.728;2023-04-01T21:32:32;8.40;;;3.10;;
54743;SDS011;40639;53.170;6.728;2023-04-01T21:38:03;6.03;;;3.00;;
54743;SDS011;40639;53.170;6.728;2023-04-01T21:59:14;8.23;;;3.08;;
54743;SDS011;40639;53.170;6.728;2023-04-01T22:04:43;7.32;;;2.90;;
54743;SDS011;40639;53.170;6.728;2023-04-01T22:07:14;7.40;;;3.10;;
54743;SDS011;40639;53.170;6.728;2023-04-01T22:10:28;6.22;;;2.83;;
54743;SDS011;40639;53.170;6.728;2023-04-01T22:13:00;6.32;;;3.00;;
54743;SDS011;40639;53.170;6.728;2023-04-01T22:18:03;7.18;;;2.50;;
54743;SDS011;40639;53.170;6.728;2023-04-01T22:20:33;5.07;;;2.30;;
54743;SDS011;40639;53.170;6.728;2023-04-01T22:25:38;7.38;;;2.42;;
54743;SDS011;40639;53.170;6.728;2023-04-01T22:28:07;7.83;;;2.80;;
54743;SDS011;40639;53.170;6.728;2023-04-01T22:30:41;6.40;;;2.80;;
54743;SDS011;40639;53.170;6.728;2023-04-01T22:33:16;6.32;;;2.40;;
54743;SDS011;40639;53.170;6.728;2023-04-01T22:35:53;4.60;;;2.30;;
54743;SDS011;40639;53.170;6.728;2023-04-01T22:45:56;7.28;;;2.80;;
54743;SDS011;40639;53.170;6.728;2023-04-01T22:48:29;7.18;;;3.20;;
54743;SDS011;40639;53.170;6.728;2023-04-01T22:51:18;4.78;;;2.97;;
54743;SDS011;40639;53.170;6.728;2023-04-01T22:56:35;5.80;;;2.60;;
54743;SDS011;40639;53.170;6.728;2023-04-01T22:59:04;7.10;;;3.40;;
54743;SDS011;40639;53.170;6.728;2023-04-01T23:01:33;7.63;;;2.75;;
54743;SDS011;40639;53.170;6.728;2023-04-01T23:04:03;5.80;;;3.00;;
54743;SDS011;40639;53.170;6.728;2023-04-01T23:06:33;7.82;;;3.30;;
54743;SDS011;40639;53.170;6.728;2023-04-01T23:09:02;5.85;;;2.72;;
54743;SDS011;40639;53.170;6.728;2023-04-01T23:11:44;4.38;;;2.90;;
54743;SDS011;40639;53.170;6.728;2023-04-01T23:16:45;6.20;;;3.03;;
54743;SDS011;40639;53.170;6.728;2023-04-01T23:19:17;6.45;;;2.80;;
54743;SDS011;40639;53.170;6.728;2023-04-01T23:21:49;4.65;;;2.35;;
54743;SDS011;40639;53.170;6.728;2023-04-01T23:29:50;4.72;;;2.80;;
54743;SDS011;40639;53.170;6.728;2023-04-01T23:32:22;6.30;;;2.33;;
54743;SDS011;40639;53.170;6.728;2023-04-01T23:34:51;4.47;;;2.10;;
54743;SDS011;40639;53.170;6.728;2023-04-01T23:37:18;6.05;;;2.30;;
54743;SDS011;40639;53.170;6.728;2023-04-01T23:39:49;5.45;;;2.10;;
54743;SDS011;40639;53.170;6.728;2023-04-01T23:42:20;5.68;;;2.40;;
54743;SDS011;40639;53.170;6.728;2023-04-01T23:44:51;5.55;;;2.30;;
54743;SDS011;40639;53.170;6.728;2023-04-01T23:47:19;5.55;;;2.42;;
54743;SDS011;40639;53.170;6.728;2023-04-01T23:50:06;4.13;;;2.28;;
54743;SDS011;40639;53.170;6.728;2023-04-01T23:52:36;8.05;;;2.70;;
54743;SDS011;40639;53.170;6.728;2023-04-01T23:57:37;6.78;;;2.70;;
